Time;durP1;ratioP1;P1;durP2;ratioP2;P2;SDS_P1;SDS_P2;PMS_P1;PMS_P2;Temp;Humidity;BMP_temperature;BMP_pressure;BME280_temperature;BME280_humidity;BME280_pressure;Samples;Min_cycle;Max_cycle;Signal;HPM_P1;HPM_P2
2021/11/10 00:02:11;;;;;;;9.63;8.50;;;3.50;99.90;;;;;;5113597;28;20550;-65
2021/11/10 00:04:39;;;;;;;14.45;9.60;;;3.50;99.90;;;;;;5112951;28;20606;-65
2021/11/10 00:07:06;;;;;;;13.50;10.07;;;3.50;99.90;;;;;;5113860;28;20194;-67
2021/11/10 00:09:33;;;;;;;14.23;8.98;;;3.50;99.90;;;;;;5113093;28;20587;-65
2021/11/10 00:11:59;;;;;;;13.30;9.05;;;3.50;99.90;;;;;;5113728;28;20579;-65
2021/11/10 00:14:26;;;;;;;15.02;10.05;;;3.40;99.90;;;;;;5113607;28;20213;-65
2021/11/10 00:16:55;;;;;;;12.88;9.18;;;3.40;99.90;;;;;;5113302;28;20559;-65
2021/11/10 00:19:22;;;;;;;16.42;10.30;;;3.40;99.90;;;;;;5094621;28;20223;-65
2021/11/10 00:21:50;;;;;;;10.32;9.27;;;3.30;99.90;;;;;;5113325;28;20661;-65
2021/11/10 00:24:17;;;;;;;14.77;9.35;;;3.30;99.90;;;;;;5113652;28;20195;-65
2021/11/10 00:26:44;;;;;;;13.02;8.50;;;3.20;99.90;;;;;;5113577;28;20267;-64
2021/11/10 00:29:10;;;;;;;13.30;9.50;;;3.20;99.90;;;;;;5112694;28;20206;-64
2021/11/10 00:31:36;;;;;;;10.25;8.48;;;3.10;99.90;;;;;;5113379;28;20678;-64
2021/11/10 00:34:03;;;;;;;17.55;8.25;;;3.10;99.90;;;;;;5116377;28;20202;-64
2021/11/10 00:36:29;;;;;;;11.50;8.45;;;3.10;99.90;;;;;;5117037;28;20195;-64
2021/11/10 00:38:57;;;;;;;16.77;8.98;;;3.00;99.90;;;;;;5117217;28;20222;-65
2021/11/10 00:41:24;;;;;;;14.38;8.45;;;3.00;99.90;;;;;;5116436;28;20195;-64
2021/11/10 00:43:51;;;;;;;9.65;8.65;;;3.00;99.90;;;;;;5116668;28;20252;-65
2021/11/10 00:46:17;;;;;;;11.15;9.00;;;2.90;99.90;;;;;;5117197;28;20210;-64
2021/11/10 00:48:44;;;;;;;10.55;8.65;;;2.80;99.90;;;;;;5116963;28;20209;-65
2021/11/10 00:51:10;;;;;;;11.88;8.63;;;2.70;99.90;;;;;;5116749;28;20233;-64
2021/11/10 00:53:37;;;;;;;16.50;9.38;;;2.60;99.90;;;;;;5117014;28;20223;-64
2021/11/10 00:56:03;;;;;;;10.40;8.30;;;2.60;99.90;;;;;;5116935;28;20198;-64
2021/11/10 00:58:30;;;;;;;12.77;8.85;;;2.60;99.90;;;;;;5116767;28;20221;-64
2021/11/10 01:00:56;;;;;;;11.88;8.93;;;2.60;99.90;;;;;;5117214;28;20202;-65
2021/11/10 01:03:27;;;;;;;12.05;9.45;;;2.60;99.90;;;;;;5098775;28;20626;-64
2021/11/10 01:05:56;;;;;;;14.63;8.68;;;2.60;99.90;;;;;;5116112;28;20203;-64
2021/11/10 01:08:22;;;;;;;11.30;8.70;;;2.60;99.90;;;;;;5116927;28;20210;-64
2021/11/10 01:10:49;;;;;;;12.27;9.45;;;2.60;99.90;;;;;;5116684;28;20203;-64
2021/11/10 01:13:16;;;;;;;11.23;9.00;;;2.50;99.90;;;;;;5116204;28;20206;-64
2021/11/10 01:15:43;;;;;;;12.88;9.02;;;2.50;99.90;;;;;;5116279;28;20210;-65
2021/11/10 01:18:10;;;;;;;11.45;8.80;;;2.50;99.90;;;;;;5116404;28;20226;-63
2021/11/10 01:20:37;;;;;;;10.60;8.48;;;2.50;99.90;;;;;;5116151;28;20227;-63
2021/11/10 01:23:04;;;;;;;13.25;8.88;;;2.40;99.90;;;;;;5115707;28;20199;-66
2021/11/10 01:25:31;;;;;;;15.15;9.93;;;2.40;99.90;;;;;;5115473;28;20198;-65
2021/11/10 01:27:57;;;;;;;15.13;8.77;;;2.40;99.90;;;;;;5116271;28;20202;-64
2021/11/10 01:30:24;;;;;;;11.02;8.65;;;2.40;99.90;;;;;;5115727;28;20205;-66
2021/11/10 01:32:51;;;;;;;9.70;8.13;;;2.40;99.90;;;;;;5115338;28;20223;-63
2021/11/10 01:35:18;;;;;;;12.93;9.18;;;2.30;99.90;;;;;;5115518;28;20202;-63
2021/11/10 01:37:45;;;;;;;11.00;8.70;;;2.30;99.90;;;;;;5115750;28;20210;-63
2021/11/10 01:40:14;;;;;;;11.50;8.32;;;2.40;99.90;;;;;;5115786;28;20227;-64
2021/11/10 01:42:43;;;;;;;17.85;8.10;;;2.30;99.90;;;;;;5116083;28;20206;-64
2021/11/10 01:45:12;;;;;;;13.68;9.23;;;2.30;99.90;;;;;;5115638;28;20247;-64
2021/11/10 01:47:40;;;;;;;11.02;8.90;;;2.20;99.90;;;;;;5114939;28;20194;-64
2021/11/10 01:50:10;;;;;;;20.05;10.10;;;2.30;99.90;;;;;;5115516;28;20260;-63
2021/11/10 01:52:36;;;;;;;14.95;10.43;;;2.30;99.90;;;;;;5115496;28;20207;-64
2021/11/10 01:55:05;;;;;;;17.50;9.90;;;2.10;99.90;;;;;;5097092;28;20225;-63
2021/11/10 01:57:32;;;;;;;10.98;8.73;;;2.10;99.90;;;;;;5115977;28;20206;-63
2021/11/10 02:00:17;;;;;;;14.35;10.40;;;2.10;99.90;;;;;;5115469;28;20223;-63
2021/11/10 02:02:44;;;;;;;13.00;8.93;;;2.10;99.90;;;;;;5097156;28;20611;-64
2021/11/10 02:05:12;;;;;;;10.85;9.05;;;2.10;99.90;;;;;;5115261;28;20206;-64
2021/11/10 02:07:39;;;;;;;14.48;9.65;;;2.10;99.90;;;;;;5115490;28;20256;-64
2021/11/10 02:10:09;;;;;;;10.95;8.50;;;2.00;99.90;;;;;;5114299;28;20626;-64
2021/11/10 02:12:36;;;;;;;12.02;9.80;;;2.10;99.90;;;;;;5114581;28;20211;-64
2021/11/10 02:15:09;;;;;;;13.77;9.73;;;2.00;99.90;;;;;;5115136;28;20721;-64
2021/11/10 02:17:37;;;;;;;13.13;9.30;;;2.00;99.90;;;;;;5115186;28;20190;-63
2021/11/10 02:20:06;;;;;;;18.35;9.25;;;2.00;99.90;;;;;;5114243;28;20218;-63
2021/11/10 02:22:34;;;;;;;14.15;9.95;;;2.00;99.90;;;;;;5096306;28;20199;-64
2021/11/10 02:25:01;;;;;;;17.88;9.80;;;2.00;99.90;;;;;;5114697;28;20621;-64
2021/11/10 02:27:34;;;;;;;14.98;8.98;;;2.00;99.90;;;;;;5096360;28;20199;-64
2021/11/10 02:30:03;;;;;;;17.55;9.60;;;2.00;99.90;;;;;;5115319;28;20203;-64
2021/11/10 02:32:30;;;;;;;17.27;10.48;;;2.00;99.90;;;;;;5114938;28;20203;-64
2021/11/10 02:34:57;;;;;;;13.95;10.00;;;2.10;99.90;;;;;;5114742;28;20203;-64
2021/11/10 02:37:23;;;;;;;18.48;10.80;;;2.10;99.90;;;;;;5114794;28;20202;-64
2021/11/10 02:39:51;;;;;;;11.93;8.90;;;2.10;99.90;;;;;;5114576;28;20222;-64
2021/11/10 02:42:19;;;;;;;12.02;8.80;;;2.00;99.90;;;;;;5114209;28;20244;-64
2021/11/10 02:44:51;;;;;;;11.48;9.18;;;1.90;99.90;;;;;;5114818;28;20258;-65
2021/11/10 02:47:19;;;;;;;14.57;9.25;;;1.80;99.90;;;;;;5114754;28;20198;-65
2021/11/10 02:49:47;;;;;;;19.77;10.55;;;1.70;99.90;;;;;;5113708;28;20210;-65
2021/11/10 02:52:17;;;;;;;14.40;10.20;;;1.70;99.90;;;;;;5114518;28;20179;-65
2021/11/10 02:54:48;;;;;;;15.82;9.38;;;1.60;99.90;;;;;;5114407;28;20225;-65
2021/11/10 02:57:15;;;;;;;13.13;9.15;;;1.60;99.90;;;;;;5113598;28;20206;-65
2021/11/10 02:59:41;;;;;;;12.30;9.27;;;1.60;99.90;;;;;;5114199;28;20218;-65
2021/11/10 03:02:09;;;;;;;14.85;10.05;;;1.50;99.90;;;;;;5113883;28;20217;-65
2021/11/10 03:04:46;;;;;;;13.95;10.98;;;1.50;99.90;;;;;;5113392;28;20217;-65
2021/11/10 03:07:14;;;;;;;14.18;9.88;;;1.50;99.90;;;;;;5114307;28;20182;-65
2021/11/10 03:09:41;;;;;;;15.43;10.77;;;1.50;99.90;;;;;;5113264;28;20202;-65
2021/11/10 03:12:09;;;;;;;20.88;10.25;;;1.50;99.90;;;;;;5114078;28;20266;-65
2021/11/10 03:14:38;;;;;;;16.42;9.73;;;1.60;99.90;;;;;;5114008;28;20275;-65
2021/11/10 03:17:08;;;;;;;13.80;10.35;;;1.70;99.90;;;;;;5114353;28;20558;-66
2021/11/10 03:19:35;;;;;;;15.57;9.77;;;1.70;99.90;;;;;;5113962;28;20218;-65
2021/11/10 03:22:03;;;;;;;16.15;10.30;;;1.80;99.90;;;;;;5113751;28;20194;-65
2021/11/10 03:24:30;;;;;;;12.18;9.93;;;1.70;99.90;;;;;;5095651;28;20248;-65
2021/11/10 03:26:57;;;;;;;14.02;9.85;;;1.70;99.90;;;;;;5113924;28;20202;-65
2021/11/10 03:29:23;;;;;;;12.48;9.75;;;1.70;99.90;;;;;;5114283;28;20261;-65
2021/11/10 03:31:50;;;;;;;14.75;10.30;;;1.70;99.90;;;;;;5096152;28;20194;-65
2021/11/10 03:34:16;;;;;;;13.88;9.50;;;1.70;99.90;;;;;;5114152;28;20198;-65
2021/11/10 03:36:43;;;;;;;13.45;8.73;;;1.70;99.90;;;;;;5114357;28;20206;-65
2021/11/10 03:39:12;;;;;;;15.02;10.20;;;1.60;99.90;;;;;;5114309;28;20210;-65
2021/11/10 03:41:39;;;;;;;12.25;9.32;;;1.70;99.90;;;;;;5113960;28;20259;-65
2021/11/10 03:44:06;;;;;;;16.00;10.65;;;1.70;99.90;;;;;;5113003;28;20194;-65
2021/11/10 03:46:34;;;;;;;12.90;8.30;;;1.60;99.90;;;;;;5114027;28;20612;-65
2021/11/10 03:49:00;;;;;;;10.23;8.18;;;1.50;99.90;;;;;;5113720;28;20233;-66
2021/11/10 03:51:27;;;;;;;10.55;8.38;;;1.50;99.90;;;;;;5112796;28;20251;-65
2021/11/10 03:53:54;;;;;;;9.32;7.45;;;1.50;99.90;;;;;;5113340;28;20221;-65
2021/11/10 03:56:21;;;;;;;12.13;8.82;;;1.40;99.90;;;;;;5112719;28;20199;-65
2021/11/10 03:58:48;;;;;;;22.42;9.05;;;1.30;99.90;;;;;;5113441;28;20270;-65
2021/11/10 04:01:14;;;;;;;9.90;8.20;;;1.30;99.90;;;;;;5113583;28;20688;-65
2021/11/10 04:03:41;;;;;;;10.85;9.18;;;1.30;99.90;;;;;;5113703;28;20206;-65
2021/11/10 04:06:08;;;;;;;14.48;11.00;;;1.20;99.90;;;;;;5113620;28;20657;-65
2021/11/10 04:08:35;;;;;;;16.33;11.98;;;1.20;99.90;;;;;;5116035;28;20201;-65
2021/11/10 04:11:01;;;;;;;17.02;12.10;;;1.20;99.90;;;;;;5116869;28;20223;-65
2021/11/10 04:13:29;;;;;;;11.10;8.80;;;1.30;99.90;;;;;;5117490;28;20205;-65
2021/11/10 04:15:56;;;;;;;14.70;10.07;;;1.30;99.90;;;;;;5117576;28;20207;-65
2021/11/10 04:18:22;;;;;;;10.77;8.93;;;1.30;99.90;;;;;;5117601;28;20194;-65
2021/11/10 04:20:49;;;;;;;12.35;8.75;;;1.10;99.90;;;;;;5117189;28;20241;-65
2021/11/10 04:23:16;;;;;;;11.30;8.63;;;1.20;99.90;;;;;;5098757;28;20206;-65
2021/11/10 04:25:42;;;;;;;12.77;9.73;;;1.20;99.90;;;;;;5117644;28;20202;-66
2021/11/10 04:28:10;;;;;;;11.07;9.13;;;1.20;99.90;;;;;;5117037;28;20190;-66
2021/11/10 04:30:37;;;;;;;15.95;7.97;;;1.10;99.90;;;;;;5116600;28;20657;-66
2021/11/10 04:33:04;;;;;;;12.32;9.05;;;1.00;99.90;;;;;;5117599;28;20218;-66
2021/11/10 04:35:30;;;;;;;21.23;10.23;;;0.90;99.90;;;;;;5098806;28;20726;-66
2021/11/10 04:37:57;;;;;;;12.02;8.60;;;0.90;99.90;;;;;;5116477;28;20229;-66
2021/11/10 04:40:23;;;;;;;13.75;8.98;;;0.90;99.90;;;;;;5117010;28;20230;-66
2021/11/10 04:42:50;;;;;;;12.40;8.60;;;0.90;99.90;;;;;;5116712;28;20613;-66
2021/11/10 04:45:24;;;;;;;16.67;9.60;;;0.90;99.90;;;;;;5116709;28;20205;-66
2021/11/10 04:47:50;;;;;;;12.15;9.77;;;0.80;99.90;;;;;;5116291;28;20195;-66
2021/11/10 04:50:17;;;;;;;14.07;10.35;;;0.90;99.90;;;;;;5116739;28;20218;-65
2021/11/10 04:52:43;;;;;;;12.30;9.73;;;0.90;99.90;;;;;;5081298;28;20206;-66
2021/11/10 04:55:10;;;;;;;16.75;10.43;;;0.90;99.90;;;;;;5116335;28;20203;-66
2021/11/10 04:57:36;;;;;;;14.70;10.60;;;0.90;99.90;;;;;;5115918;28;20286;-66
2021/11/10 05:00:06;;;;;;;12.52;9.07;;;0.90;99.90;;;;;;5116126;28;20219;-66
2021/11/10 05:02:32;;;;;;;13.10;9.95;;;0.90;99.90;;;;;;5116448;28;20190;-66
2021/11/10 05:04:59;;;;;;;14.00;8.85;;;0.90;99.90;;;;;;5116489;28;20613;-66
2021/11/10 05:07:25;;;;;;;11.73;8.40;;;1.00;99.90;;;;;;5116090;28;20206;-66
2021/11/10 05:09:54;;;;;;;12.95;9.25;;;0.90;99.90;;;;;;5115649;28;20251;-66
2021/11/10 05:12:21;;;;;;;16.50;9.85;;;0.80;99.90;;;;;;5116094;28;20263;-66
2021/11/10 05:14:47;;;;;;;12.55;8.43;;;0.80;99.90;;;;;;5116220;28;20209;-66
2021/11/10 05:17:14;;;;;;;9.07;8.15;;;0.80;99.90;;;;;;5116451;28;20258;-66
2021/11/10 05:19:40;;;;;;;11.00;8.27;;;0.70;99.90;;;;;;5115750;28;20222;-65
2021/11/10 05:22:06;;;;;;;21.75;7.30;;;0.50;99.90;;;;;;5116574;28;20198;-64
2021/11/10 05:24:33;;;;;;;13.43;8.45;;;0.50;99.90;;;;;;5116222;28;20203;-65
2021/11/10 05:26:59;;;;;;;8.65;7.18;;;0.40;99.90;;;;;;5116357;28;20194;-65
2021/11/10 05:29:26;;;;;;;11.32;8.18;;;0.40;99.90;;;;;;5116159;28;20210;-65
2021/11/10 05:31:52;;;;;;;11.48;8.88;;;0.40;99.90;;;;;;5115525;28;20731;-63
2021/11/10 05:34:19;;;;;;;11.57;8.25;;;0.30;99.90;;;;;;5115816;28;20211;-64
2021/11/10 05:36:45;;;;;;;11.30;8.95;;;0.40;99.90;;;;;;5116227;28;20207;-64
2021/11/10 05:39:11;;;;;;;13.50;10.02;;;0.50;99.90;;;;;;5116116;28;20210;-64
2021/11/10 05:41:38;;;;;;;14.57;9.77;;;0.50;99.90;;;;;;5115652;28;20209;-64
2021/11/10 05:44:05;;;;;;;16.08;8.40;;;0.60;99.90;;;;;;5115840;28;20206;-64
2021/11/10 05:46:32;;;;;;;11.93;8.88;;;0.70;99.90;;;;;;5115912;28;20205;-64
2021/11/10 05:48:58;;;;;;;13.77;8.15;;;0.70;99.90;;;;;;5115887;28;20201;-64
2021/11/10 05:51:24;;;;;;;17.00;9.32;;;0.70;99.90;;;;;;5115637;28;20256;-64
2021/11/10 05:53:53;;;;;;;11.60;8.63;;;0.70;99.90;;;;;;5097043;28;20210;-64
2021/11/10 05:56:21;;;;;;;11.77;8.55;;;0.60;99.90;;;;;;5115088;28;20235;-64
2021/11/10 05:58:51;;;;;;;14.52;8.73;;;0.60;99.90;;;;;;5114622;28;20198;-64
2021/11/10 06:01:18;;;;;;;12.30;8.30;;;0.60;99.90;;;;;;5114580;28;20201;-64
2021/11/10 06:03:45;;;;;;;15.77;10.48;;;0.60;99.90;;;;;;5115237;28;20202;-64
2021/11/10 06:06:11;;;;;;;13.40;10.00;;;0.60;99.90;;;;;;5115142;28;20279;-64
2021/11/10 06:08:38;;;;;;;16.30;8.70;;;0.70;99.90;;;;;;5115346;28;20202;-64
2021/11/10 06:11:05;;;;;;;13.55;8.57;;;0.70;99.90;;;;;;5115278;28;20206;-64
2021/11/10 06:13:32;;;;;;;17.75;9.07;;;0.60;99.90;;;;;;5115015;28;20199;-64
2021/11/10 06:15:58;;;;;;;22.83;11.73;;;0.70;99.90;;;;;;5114016;28;20730;-64
2021/11/10 06:18:25;;;;;;;14.70;10.10;;;0.70;99.90;;;;;;5114465;28;20701;-64
2021/11/10 06:20:51;;;;;;;13.13;9.57;;;0.60;99.90;;;;;;5114912;28;20271;-64
2021/11/10 06:23:18;;;;;;;22.30;9.10;;;0.70;99.90;;;;;;5114634;28;20206;-64
2021/11/10 06:25:44;;;;;;;13.48;8.57;;;0.70;99.90;;;;;;5114660;28;20194;-65
2021/11/10 06:28:11;;;;;;;16.73;8.70;;;0.70;99.90;;;;;;5096436;28;20202;-64
2021/11/10 06:30:37;;;;;;;10.43;8.85;;;0.60;99.90;;;;;;5114189;28;20275;-64
2021/11/10 06:33:04;;;;;;;13.73;9.30;;;0.60;99.90;;;;;;5096809;28;20247;-64
2021/11/10 06:35:30;;;;;;;17.75;10.43;;;0.50;99.90;;;;;;5113878;28;20202;-64
2021/11/10 06:37:57;;;;;;;10.20;8.57;;;0.50;99.90;;;;;;5114604;28;20282;-65
2021/11/10 06:40:23;;;;;;;10.82;8.25;;;0.50;99.90;;;;;;5114611;28;20222;-64
2021/11/10 06:42:50;;;;;;;14.38;9.93;;;0.50;99.90;;;;;;5114253;28;20199;-64
2021/11/10 06:45:17;;;;;;;11.23;8.70;;;0.50;99.90;;;;;;5113631;28;20201;-64
2021/11/10 06:47:44;;;;;;;11.20;8.75;;;0.50;99.90;;;;;;5114266;28;20201;-64
2021/11/10 06:50:11;;;;;;;13.73;9.65;;;0.60;99.90;;;;;;5113222;28;20627;-64
2021/11/10 06:52:38;;;;;;;14.20;9.88;;;0.60;99.90;;;;;;5114620;28;20179;-65
2021/11/10 06:55:06;;;;;;;16.40;12.63;;;0.50;99.90;;;;;;5114343;28;20223;-65
2021/11/10 06:57:32;;;;;;;14.45;9.20;;;0.60;99.90;;;;;;5114468;28;20205;-67
2021/11/10 06:59:59;;;;;;;17.73;13.38;;;0.60;99.90;;;;;;5114381;28;20627;-67
2021/11/10 07:02:26;;;;;;;23.52;11.80;;;0.70;99.90;;;;;;5114147;28;20206;-65
2021/11/10 07:04:52;;;;;;;18.83;12.27;;;0.80;99.90;;;;;;5114119;28;20199;-65
2021/11/10 07:07:19;;;;;;;23.90;13.40;;;0.90;99.90;;;;;;5113891;28;20727;-65
2021/11/10 07:09:45;;;;;;;31.60;17.13;;;1.00;99.90;;;;;;5113653;28;20263;-66
2021/11/10 07:12:12;;;;;;;26.83;17.58;;;1.10;99.90;;;;;;5113993;28;20211;-64
2021/11/10 07:14:38;;;;;;;18.23;11.35;;;1.20;99.90;;;;;;5114216;28;20210;-65
2021/11/10 07:17:05;;;;;;;17.70;12.40;;;1.20;99.90;;;;;;5114104;28;20194;-65
2021/11/10 07:19:31;;;;;;;14.90;11.13;;;1.10;99.90;;;;;;5113724;28;20223;-65
2021/11/10 07:21:58;;;;;;;26.98;13.77;;;1.10;99.90;;;;;;5113435;28;20203;-66
2021/11/10 07:24:25;;;;;;;19.17;11.10;;;1.20;99.90;;;;;;5114033;28;20194;-65
2021/11/10 07:26:51;;;;;;;16.75;12.00;;;1.20;99.90;;;;;;5113799;28;20543;-65
2021/11/10 07:29:17;;;;;;;14.57;12.02;;;1.20;99.90;;;;;;5113649;28;20561;-66
2021/11/10 07:31:44;;;;;;;27.58;13.05;;;1.40;99.90;;;;;;5113804;28;20568;-63
2021/11/10 07:34:10;;;;;;;17.65;11.35;;;1.50;99.90;;;;;;5113994;28;20202;-64
2021/11/10 07:36:37;;;;;;;16.98;12.60;;;1.60;99.90;;;;;;5113652;28;20202;-63
2021/11/10 07:39:03;;;;;;;25.08;14.40;;;1.60;99.90;;;;;;5113618;28;20588;-64
2021/11/10 07:41:34;;;;;;;21.50;14.48;;;1.70;99.90;;;;;;5113502;28;20588;-64
2021/11/10 07:44:01;;;;;;;29.13;16.25;;;1.90;99.90;;;;;;5113237;28;20191;-64
2021/11/10 07:46:29;;;;;;;22.25;12.95;;;2.00;99.90;;;;;;5113328;28;20198;-65
2021/11/10 07:48:56;;;;;;;27.48;16.02;;;2.20;99.90;;;;;;5113889;28;20206;-65
2021/11/10 07:51:22;;;;;;;21.63;13.20;;;2.30;99.90;;;;;;5113498;28;20229;-65
2021/11/10 07:53:49;;;;;;;29.17;16.60;;;2.40;99.90;;;;;;5113227;28;20223;-64
2021/11/10 07:56:15;;;;;;;22.23;15.60;;;2.50;99.90;;;;;;5113070;28;20199;-65
2021/11/10 07:58:42;;;;;;;14.23;10.65;;;2.70;99.90;;;;;;5079221;28;20203;-64
2021/11/10 08:01:12;;;;;;;12.90;9.38;;;2.90;99.90;;;;;;5113765;28;20622;-64
2021/11/10 08:03:39;;;;;;;49.83;22.77;;;3.10;99.90;;;;;;5113391;28;20263;-64
2021/11/10 08:06:05;;;;;;;51.65;26.77;;;2.90;99.90;;;;;;5113439;28;20225;-64
2021/11/10 08:08:32;;;;;;;59.75;34.03;;;2.70;99.90;;;;;;5113300;28;20626;-65
2021/11/10 08:11:01;;;;;;;48.13;22.67;;;2.50;99.90;;;;;;5113450;28;20263;-64
2021/11/10 08:13:29;;;;;;;45.50;22.20;;;2.50;99.90;;;;;;5113230;28;20210;-64
2021/11/10 08:15:58;;;;;;;30.90;17.77;;;2.70;99.90;;;;;;5113156;28;20724;-64
2021/11/10 08:18:25;;;;;;;22.42;13.73;;;2.90;99.90;;;;;;5113215;28;20203;-64
2021/11/10 08:20:52;;;;;;;31.10;15.10;;;3.20;99.90;;;;;;5113349;28;20221;-64
2021/11/10 08:23:25;;;;;;;25.23;17.58;;;3.20;99.90;;;;;;5113228;28;20707;-64
2021/11/10 08:25:53;;;;;;;26.75;18.10;;;3.20;99.90;;;;;;5113156;28;20199;-64
2021/11/10 08:28:20;;;;;;;19.35;14.77;;;3.30;99.90;;;;;;5113431;28;20198;-65
2021/11/10 08:30:47;;;;;;;21.77;14.07;;;3.40;99.90;;;;;;5112892;28;20653;-65
2021/11/10 08:33:14;;;;;;;19.98;13.48;;;3.50;99.90;;;;;;5112364;28;20202;-65
2021/11/10 08:35:41;;;;;;;18.45;12.57;;;3.70;99.90;;;;;;5113416;28;20210;-65
2021/11/10 08:38:08;;;;;;;21.23;11.70;;;3.70;99.90;;;;;;5112699;28;20248;-65
2021/11/10 08:40:35;;;;;;;19.50;12.35;;;3.90;99.90;;;;;;5095071;28;20214;-65
2021/11/10 08:43:02;;;;;;;17.50;12.30;;;4.00;99.90;;;;;;5112636;28;20218;-65
2021/11/10 08:45:33;;;;;;;17.17;12.18;;;4.10;99.90;;;;;;5113664;28;20288;-66
2021/11/10 08:48:04;;;;;;;15.88;11.77;;;4.30;99.90;;;;;;5112985;28;20213;-66
2021/11/10 08:50:33;;;;;;;21.27;11.93;;;4.50;99.90;;;;;;5112521;28;20230;-66
2021/11/10 08:53:00;;;;;;;12.20;10.90;;;4.50;99.90;;;;;;5113336;28;20263;-66
2021/11/10 08:55:27;;;;;;;18.98;9.90;;;4.60;99.90;;;;;;5116576;28;20283;-66
2021/11/10 08:57:55;;;;;;;13.52;9.35;;;4.70;99.90;;;;;;5115610;28;20322;-66
2021/11/10 09:00:24;;;;;;;20.25;9.70;;;4.70;99.90;;;;;;5116253;28;20214;-66
2021/11/10 09:02:53;;;;;;;12.30;10.25;;;4.70;99.90;;;;;;5116486;28;20202;-66
2021/11/10 09:05:19;;;;;;;11.88;9.55;;;4.70;99.90;;;;;;5116780;28;20526;-66
2021/11/10 09:07:46;;;;;;;14.52;10.40;;;4.90;99.90;;;;;;5116364;28;20202;-66
2021/11/10 09:10:16;;;;;;;15.68;10.50;;;4.80;99.90;;;;;;5116186;28;20201;-66
2021/11/10 09:12:46;;;;;;;16.33;11.30;;;4.80;99.90;;;;;;5116930;28;20202;-66
2021/11/10 09:15:14;;;;;;;14.27;10.80;;;5.10;99.90;;;;;;5116684;28;20530;-66
2021/11/10 09:17:42;;;;;;;20.63;9.25;;;5.20;99.90;;;;;;5116434;28;20213;-66
2021/11/10 09:20:13;;;;;;;14.38;10.15;;;5.40;99.90;;;;;;5116225;28;20750;-66
2021/11/10 09:22:41;;;;;;;18.33;10.77;;;5.40;99.90;;;;;;5116504;28;20543;-66
2021/11/10 09:25:10;;;;;;;12.95;9.50;;;5.50;99.90;;;;;;5116342;28;20202;-66
2021/11/10 09:27:38;;;;;;;10.50;9.40;;;5.50;99.90;;;;;;5115977;28;20658;-66
2021/11/10 09:30:08;;;;;;;11.63;10.30;;;5.50;99.90;;;;;;5115669;28;20199;-66
2021/11/10 09:32:35;;;;;;;15.45;10.02;;;5.50;99.90;;;;;;5115789;28;20255;-66
2021/11/10 09:35:02;;;;;;;14.82;10.48;;;5.70;99.90;;;;;;5115617;28;20592;-66
2021/11/10 09:37:29;;;;;;;17.42;10.57;;;5.70;99.90;;;;;;5115809;28;20567;-66
2021/11/10 09:39:55;;;;;;;16.40;11.25;;;5.60;99.90;;;;;;5115574;28;20222;-66
2021/11/10 09:42:24;;;;;;;23.77;12.55;;;5.70;99.90;;;;;;5115887;28;20199;-66
2021/11/10 09:44:54;;;;;;;21.92;12.80;;;5.80;99.90;;;;;;5115625;28;20194;-66
2021/11/10 09:47:21;;;;;;;18.00;12.27;;;5.90;99.90;;;;;;5115688;28;20654;-66
2021/11/10 09:49:50;;;;;;;16.98;11.57;;;5.90;99.90;;;;;;5115513;28;20203;-66
2021/11/10 09:52:17;;;;;;;15.35;11.35;;;5.90;99.90;;;;;;5115563;28;20193;-66
2021/11/10 09:54:44;;;;;;;15.30;10.35;;;5.80;99.90;;;;;;5115913;28;20214;-66
2021/11/10 09:57:11;;;;;;;16.40;10.30;;;5.70;99.90;;;;;;5115474;28;20654;-66
2021/11/10 09:59:39;;;;;;;14.02;10.38;;;5.70;99.90;;;;;;5115216;28;20219;-66
2021/11/10 10:02:11;;;;;;;14.48;10.70;;;5.80;99.90;;;;;;5115215;28;20199;-67
2021/11/10 10:04:43;;;;;;;13.93;10.65;;;5.90;99.90;;;;;;5114985;28;20650;-65
2021/11/10 10:07:11;;;;;;;13.93;10.10;;;6.10;99.90;;;;;;5114495;28;20205;-66
2021/11/10 10:09:38;;;;;;;12.27;11.05;;;6.20;99.90;;;;;;5115386;28;20237;-66
2021/11/10 10:12:06;;;;;;;28.15;17.00;;;6.20;99.90;;;;;;5115166;28;20572;-66
2021/11/10 10:14:34;;;;;;;15.02;11.63;;;6.20;99.90;;;;;;5114841;28;20218;-66
2021/11/10 10:17:08;;;;;;;15.23;11.40;;;6.10;99.90;;;;;;5114014;28;20684;-66
2021/11/10 10:19:40;;;;;;;14.15;10.88;;;6.00;99.90;;;;;;5114223;28;20247;-66
2021/11/10 10:22:15;;;;;;;15.45;13.30;;;6.00;99.90;;;;;;5114599;28;20218;-66
2021/11/10 10:24:54;;;;;;;16.27;12.25;;;5.90;99.90;;;;;;5114955;28;20536;-66
2021/11/10 10:27:29;;;;;;;16.90;12.25;;;6.20;99.90;;;;;;5114522;28;20204;-66
2021/11/10 10:30:33;;;;;;;13.07;11.05;;;6.40;99.90;;;;;;5096130;28;20198;-65
2021/11/10 10:33:01;;;;;;;17.67;11.48;;;6.40;99.90;;;;;;5114131;28;20202;-65
2021/11/10 10:35:31;;;;;;;15.60;12.40;;;6.40;99.90;;;;;;5114669;28;20195;-65
2021/11/10 10:38:00;;;;;;;18.77;12.13;;;6.40;99.90;;;;;;5114403;28;20194;-65
2021/11/10 10:40:28;;;;;;;15.13;11.85;;;6.20;99.90;;;;;;5114068;28;20292;-65
2021/11/10 10:42:55;;;;;;;24.02;15.82;;;6.40;99.90;;;;;;5114561;28;20198;-65
2021/11/10 10:45:43;;;;;;;17.15;13.25;;;6.50;99.90;;;;;;5113595;28;20202;-65
2021/11/10 10:48:19;;;;;;;21.55;16.95;;;6.60;99.90;;;;;;5114019;28;20205;-65
2021/11/10 10:51:03;;;;;;;18.25;13.80;;;6.60;99.90;;;;;;5113873;28;20234;-65
2021/11/10 10:53:51;;;;;;;18.05;13.25;;;6.70;99.90;;;;;;5114356;28;20222;-66
2021/11/10 10:56:30;;;;;;;24.60;13.40;;;6.60;99.90;;;;;;5114170;28;20194;-65
2021/11/10 10:59:10;;;;;;;17.95;13.45;;;6.40;99.90;;;;;;5114212;28;20660;-64
2021/11/10 11:01:51;;;;;;;19.45;12.15;;;6.30;99.90;;;;;;5114150;28;20670;-65
2021/11/10 11:04:22;;;;;;;38.65;13.20;;;6.60;99.90;;;;;;5114395;28;20178;-65
2021/11/10 11:06:56;;;;;;;24.40;13.20;;;6.70;99.90;;;;;;5114275;28;20178;-66
2021/11/10 11:09:27;;;;;;;21.45;13.35;;;6.70;99.90;;;;;;5114090;28;20194;-65
2021/11/10 11:12:16;;;;;;;15.80;13.93;;;6.90;99.90;;;;;;5114056;28;20194;-64
2021/11/10 11:14:48;;;;;;;36.38;14.27;;;6.90;99.90;;;;;;5113736;28;20206;-64
2021/11/10 11:17:17;;;;;;;21.17;13.95;;;6.90;99.90;;;;;;5113330;28;20206;-65
2021/11/10 11:19:49;;;;;;;17.27;13.75;;;7.00;99.90;;;;;;5113789;28;20206;-65
2021/11/10 11:22:16;;;;;;;20.35;12.25;;;7.10;99.90;;;;;;5113614;28;20629;-65
2021/11/10 11:24:44;;;;;;;14.10;12.30;;;7.50;99.90;;;;;;5079233;28;20197;-66
2021/11/10 11:27:11;;;;;;;13.75;12.25;;;7.60;99.90;;;;;;5114568;28;20650;-66
2021/11/10 11:29:38;;;;;;;19.80;12.52;;;7.60;99.90;;;;;;5114042;28;20670;-65
2021/11/10 11:32:19;;;;;;;20.35;11.90;;;7.70;99.90;;;;;;5113833;28;20203;-65
2021/11/10 11:35:23;;;;;;;32.05;15.65;;;7.40;99.90;;;;;;5113377;28;20198;-66
2021/11/10 11:37:51;;;;;;;17.58;12.60;;;7.30;99.90;;;;;;5111057;28;20232;-65
2021/11/10 11:40:19;;;;;;;20.10;12.75;;;7.30;99.90;;;;;;5113560;28;20209;-65
2021/11/10 11:42:47;;;;;;;14.63;12.10;;;7.40;99.90;;;;;;5113437;28;20251;-65
2021/11/10 11:45:15;;;;;;;27.00;14.75;;;7.40;99.90;;;;;;5113725;28;20195;-64
2021/11/10 11:47:45;;;;;;;25.95;15.00;;;7.30;99.90;;;;;;5112969;28;20706;-68
2021/11/10 11:50:11;;;;;;;21.00;12.65;;;7.50;99.90;;;;;;5113425;28;20226;-66
2021/11/10 11:52:38;;;;;;;28.42;13.60;;;7.80;99.90;;;;;;5114241;28;20201;-67
2021/11/10 11:55:21;;;;;;;14.05;12.20;;;8.00;99.90;;;;;;5095830;28;20223;-67
2021/11/10 11:58:09;;;;;;;14.80;11.50;;;8.00;99.90;;;;;;5113646;28;20191;-66
2021/11/10 12:00:50;;;;;;;16.80;12.30;;;8.20;99.90;;;;;;5113037;28;20221;-66
2021/11/10 12:03:33;;;;;;;16.38;13.63;;;8.50;99.90;;;;;;5112847;28;20211;-66
2021/11/10 12:06:02;;;;;;;16.02;11.70;;;8.20;99.90;;;;;;5113621;28;20587;-67
2021/11/10 12:08:54;;;;;;;20.55;12.75;;;8.10;99.90;;;;;;5094782;28;20646;-66
2021/11/10 12:11:37;;;;;;;13.27;11.45;;;8.40;99.90;;;;;;5113496;28;20189;-67
2021/11/10 12:14:07;;;;;;;15.43;11.60;;;8.40;99.90;;;;;;5113382;28;20649;-67
2021/11/10 12:17:04;;;;;;;13.55;12.15;;;8.20;99.90;;;;;;5112921;28;20202;-67
2021/11/10 12:19:39;;;;;;;13.48;12.07;;;8.20;99.90;;;;;;5112955;28;20658;-66
2021/11/10 12:22:09;;;;;;;13.52;10.45;;;8.00;99.90;;;;;;5094726;28;20585;-66
2021/11/10 12:24:55;;;;;;;14.75;11.50;;;8.10;99.90;;;;;;5095263;28;20195;-67
2021/11/10 12:27:24;;;;;;;19.08;11.45;;;8.20;99.90;;;;;;5113191;28;20203;-67
2021/11/10 12:30:07;;;;;;;14.68;12.55;;;8.30;99.90;;;;;;5116097;28;20198;-66
2021/11/10 12:32:34;;;;;;;13.52;10.68;;;8.60;99.90;;;;;;5117022;28;20671;-66
2021/11/10 12:35:03;;;;;;;16.65;13.23;;;8.40;99.90;;;;;;5105899;28;20203;-67
2021/11/10 12:37:34;;;;;;;16.35;12.02;;;8.30;99.90;;;;;;5097479;28;20673;-64
2021/11/10 12:40:10;;;;;;;15.77;12.40;;;8.30;99.90;;;;;;5096788;28;20206;-66
2021/11/10 12:42:58;;;;;;;22.67;17.50;;;8.20;99.90;;;;;;5095964;28;20226;-66
2021/11/10 12:45:32;;;;;;;15.27;12.35;;;8.40;99.90;;;;;;5096416;28;20201;-67
2021/11/10 12:48:03;;;;;;;18.05;12.63;;;8.20;99.90;;;;;;5095538;28;20215;-68
2021/11/10 12:50:47;;;;;;;14.95;12.25;;;8.00;99.90;;;;;;5095771;28;20271;-66